sensor_id;sensor_type;location;lat;lon;timestamp;P1;durP1;ratioP1;P2;durP2;ratioP2
23360;SDS011;11852;50.082;18.554;2023-03-01T00:00:42;232.0;;;102.0;;
23360;SDS011;11852;50.082;18.554;2023-03-01T00:01:49;231.0;;;103.0;;
23360;SDS011;11852;50.082;18.554;2023-03-01T00:02:56;239.0;;;107.0;;
23360;SDS011;11852;50.082;18.554;2023-03-01T00:04:03;247.0;;;103.0;;
23360;SDS011;11852;50.082;18.554;2023-03-01T00:05:10;244.0;;;108.0;;
23360;SDS011;11852;50.082;18.554;2023-03-01T00:06:18;251.0;;;109.0;;
23360;SDS011;11852;50.082;18.554;2023-03-01T00:07:24;265.0;;;115.0;;
23360;SDS011;11852;50.082;18.554;2023-03-01T00:08:31;266.0;;;118.0;;
23360;SDS011;11852;50.082;18.554;2023-03-01T00:09:38;268.0;;;115.0;;
23360;SDS011;11852;50.082;18.554;2023-03-01T00:10:45;286.0;;;127.0;;
23360;SDS011;11852;50.082;18.554;2023-03-01T00:11:52;288.0;;;124.0;;
23360;SDS011;11852;50.082;18.554;2023-03-01T00:12:59;279.0;;;120.0;;
23360;SDS011;11852;50.082;18.554;2023-03-01T00:14:06;278.0;;;120.0;;
23360;SDS011;11852;50.082;18.554;2023-03-01T00:15:17;255.0;;;110.0;;
23360;SDS011;11852;50.082;18.554;2023-03-01T00:16:26;264.0;;;114.0;;
23360;SDS011;11852;50.082;18.554;2023-03-01T00:17:35;262.0;;;111.0;;
23360;SDS011;11852;50.082;18.554;2023-03-01T00:18:42;277.0;;;119.0;;
23360;SDS011;11852;50.082;18.554;2023-03-01T00:19:49;272.0;;;115.0;;
23360;SDS011;11852;50.082;18.554;2023-03-01T00:20:56;266.0;;;111.0;;
23360;SDS011;11852;50.082;18.554;2023-03-01T00:22:03;258.0;;;110.0;;
23360;SDS011;11852;50.082;18.554;2023-03-01T00:23:13;254.0;;;108.0;;
23360;SDS011;11852;50.082;18.554;2023-03-01T00:24:20;254.0;;;108.0;;
23360;SDS011;11852;50.082;18.554;2023-03-01T00:25:27;249.0;;;105.0;;
23360;SDS011;11852;50.082;18.554;2023-03-01T00:26:34;257.0;;;113.0;;
23360;SDS011;11852;50.082;18.554;2023-03-01T00:27:41;280.0;;;117.0;;
23360;SDS011;11852;50.082;18.554;2023-03-01T00:28:50;271.0;;;112.0;;
23360;SDS011;11852;50.082;18.554;2023-03-01T00:29:56;271.0;;;112.0;;
23360;SDS011;11852;50.082;18.554;2023-03-01T00:31:04;291.0;;;118.0;;
23360;SDS011;11852;50.082;18.554;2023-03-01T00:32:10;294.0;;;119.0;;
23360;SDS011;11852;50.082;18.554;2023-03-01T00:33:17;297.0;;;118.0;;
23360;SDS011;11852;50.082;18.554;2023-03-01T00:34:26;304.0;;;122.0;;
23360;SDS011;11852;50.082;18.554;2023-03-01T00:35:33;281.0;;;113.0;;
23360;SDS011;11852;50.082;18.554;2023-03-01T00:36:40;283.0;;;114.0;;
23360;SDS011;11852;50.082;18.554;2023-03-01T00:37:47;276.0;;;110.0;;
23360;SDS011;11852;50.082;18.554;2023-03-01T00:38:54;274.0;;;114.0;;
23360;SDS011;11852;50.082;18.554;2023-03-01T00:40:01;261.0;;;109.0;;
23360;SDS011;11852;50.082;18.554;2023-03-01T00:41:15;265.0;;;108.0;;
23360;SDS011;11852;50.082;18.554;2023-03-01T00:42:20;256.0;;;108.0;;
23360;SDS011;11852;50.082;18.554;2023-03-01T00:43:30;258.0;;;109.0;;
23360;SDS011;11852;50.082;18.554;2023-03-01T00:44:37;252.0;;;105.0;;
23360;SDS011;11852;50.082;18.554;2023-03-01T00:45:45;252.0;;;104.0;;
23360;SDS011;11852;50.082;18.554;2023-03-01T00:46:52;243.0;;;104.0;;
23360;SDS011;11852;50.082;18.554;2023-03-01T00:47:59;243.0;;;101.0;;
23360;SDS011;11852;50.082;18.554;2023-03-01T00:49:06;236.0;;;100.0;;
23360;SDS011;11852;50.082;18.554;2023-03-01T00:50:12;240.0;;;102.0;;
23360;SDS011;11852;50.082;18.554;2023-03-01T00:51:21;236.0;;;104.0;;
23360;SDS011;11852;50.082;18.554;2023-03-01T00:52:26;236.0;;;102.0;;
23360;SDS011;11852;50.082;18.554;2023-03-01T00:53:34;226.0;;;98.0;;
23360;SDS011;11852;50.082;18.554;2023-03-01T00:54:48;232.0;;;101.0;;
23360;SDS011;11852;50.082;18.554;2023-03-01T00:55:56;231.0;;;97.0;;
23360;SDS011;11852;50.082;18.554;2023-03-01T00:57:02;229.0;;;97.0;;
23360;SDS011;11852;50.082;18.554;2023-03-01T00:58:12;228.0;;;100.0;;
23360;SDS011;11852;50.082;18.554;2023-03-01T00:59:19;224.0;;;95.0;;
23360;SDS011;11852;50.082;18.554;2023-03-01T01:00:26;222.0;;;98.0;;
23360;SDS011;11852;50.082;18.554;2023-03-01T01:01:33;219.0;;;98.0;;
23360;SDS011;11852;50.082;18.554;2023-03-01T01:02:40;220.0;;;97.0;;
23360;SDS011;11852;50.082;18.554;2023-03-01T01:03:47;218.0;;;98.0;;
23360;SDS011;11852;50.082;18.554;2023-03-01T01:04:56;216.0;;;95.0;;
23360;SDS011;11852;50.082;18.554;2023-03-01T01:06:03;207.0;;;92.0;;
23360;SDS011;11852;50.082;18.554;2023-03-01T01:07:11;200.0;;;92.0;;
23360;SDS011;11852;50.082;18.554;2023-03-01T01:08:18;209.0;;;93.0;;
23360;SDS011;11852;50.082;18.554;2023-03-01T01:09:25;202.0;;;93.0;;
23360;SDS011;11852;50.082;18.554;2023-03-01T01:10:33;196.0;;;89.0;;
23360;SDS011;11852;50.082;18.554;2023-03-01T01:11:39;197.0;;;89.0;;
23360;SDS011;11852;50.082;18.554;2023-03-01T01:12:46;191.0;;;88.0;;
23360;SDS011;11852;50.082;18.554;2023-03-01T01:13:53;197.0;;;88.0;;
23360;SDS011;11852;50.082;18.554;2023-03-01T01:15:00;189.0;;;90.0;;
23360;SDS011;11852;50.082;18.554;2023-03-01T01:16:07;198.0;;;89.0;;
23360;SDS011;11852;50.082;18.554;2023-03-01T01:17:14;200.0;;;94.0;;
23360;SDS011;11852;50.082;18.554;2023-03-01T01:18:22;196.0;;;92.0;;
23360;SDS011;11852;50.082;18.554;2023-03-01T01:19:29;188.0;;;86.0;;
23360;SDS011;11852;50.082;18.554;2023-03-01T01:20:36;191.0;;;90.0;;
23360;SDS011;11852;50.082;18.554;2023-03-01T01:21:44;192.0;;;90.0;;
23360;SDS011;11852;50.082;18.554;2023-03-01T01:22:51;192.0;;;92.0;;
23360;SDS011;11852;50.082;18.554;2023-03-01T01:23:58;197.0;;;88.0;;
23360;SDS011;11852;50.082;18.554;2023-03-01T01:25:10;196.0;;;90.0;;
23360;SDS011;11852;50.082;18.554;2023-03-01T01:27:26;197.0;;;91.0;;
23360;SDS011;11852;50.082;18.554;2023-03-01T01:28:33;200.0;;;92.0;;
23360;SDS011;11852;50.082;18.554;2023-03-01T01:29:40;201.0;;;93.0;;
23360;SDS011;11852;50.082;18.554;2023-03-01T01:30:47;204.0;;;95.0;;
23360;SDS011;11852;50.082;18.554;2023-03-01T01:31:56;199.0;;;94.0;;
23360;SDS011;11852;50.082;18.554;2023-03-01T01:33:03;207.0;;;97.0;;
23360;SDS011;11852;50.082;18.554;2023-03-01T01:34:17;214.0;;;101.0;;
23360;SDS011;11852;50.082;18.554;2023-03-01T01:35:23;201.0;;;93.0;;
23360;SDS011;11852;50.082;18.554;2023-03-01T01:36:31;199.0;;;94.0;;
23360;SDS011;11852;50.082;18.554;2023-03-01T01:37:37;199.0;;;94.0;;
23360;SDS011;11852;50.082;18.554;2023-03-01T01:38:46;203.0;;;95.0;;
23360;SDS011;11852;50.082;18.554;2023-03-01T01:40:00;199.0;;;93.0;;
23360;SDS011;11852;50.082;18.554;2023-03-01T01:41:11;208.0;;;95.0;;
23360;SDS011;11852;50.082;18.554;2023-03-01T01:42:19;204.0;;;96.0;;
23360;SDS011;11852;50.082;18.554;2023-03-01T01:43:25;204.0;;;96.0;;
23360;SDS011;11852;50.082;18.554;2023-03-01T01:44:33;202.0;;;93.0;;
23360;SDS011;11852;50.082;18.554;2023-03-01T01:45:40;210.0;;;99.0;;
23360;SDS011;11852;50.082;18.554;2023-03-01T01:46:52;202.0;;;97.0;;
23360;SDS011;11852;50.082;18.554;2023-03-01T01:48:02;201.0;;;95.0;;
23360;SDS011;11852;50.082;18.554;2023-03-01T01:49:12;203.0;;;97.0;;
23360;SDS011;11852;50.082;18.554;2023-03-01T01:50:15;208.0;;;100.0;;
23360;SDS011;11852;50.082;18.554;2023-03-01T01:51:26;203.0;;;94.0;;
23360;SDS011;11852;50.082;18.554;2023-03-01T01:52:31;200.0;;;97.0;;
23360;SDS011;11852;50.082;18.554;2023-03-01T01:53:38;201.0;;;94.0;;
23360;SDS011;11852;50.082;18.554;2023-03-01T01:55:59;203.0;;;96.0;;
23360;SDS011;11852;50.082;18.554;2023-03-01T01:58:15;200.0;;;95.0;;
23360;SDS011;11852;50.082;18.554;2023-03-01T01:59:20;217.0;;;102.0;;
23360;SDS011;11852;50.082;18.554;2023-03-01T02:00:29;204.0;;;96.0;;
23360;SDS011;11852;50.082;18.554;2023-03-01T02:01:35;208.0;;;98.0;;
23360;SDS011;11852;50.082;18.554;2023-03-01T02:02:45;209.0;;;99.0;;
23360;SDS011;11852;50.082;18.554;2023-03-01T02:03:52;206.0;;;98.0;;
23360;SDS011;11852;50.082;18.554;2023-03-01T02:06:26;202.0;;;97.0;;
23360;SDS011;11852;50.082;18.554;2023-03-01T02:07:29;200.0;;;96.0;;
23360;SDS011;11852;50.082;18.554;2023-03-01T02:08:40;206.0;;;98.0;;
23360;SDS011;11852;50.082;18.554;2023-03-01T02:09:47;208.0;;;95.0;;
23360;SDS011;11852;50.082;18.554;2023-03-01T02:10:55;209.0;;;98.0;;
23360;SDS011;11852;50.082;18.554;2023-03-01T02:12:03;208.0;;;98.0;;
23360;SDS011;11852;50.082;18.554;2023-03-01T02:13:10;209.0;;;97.0;;
23360;SDS011;11852;50.082;18.554;2023-03-01T02:14:17;206.0;;;99.0;;
23360;SDS011;11852;50.082;18.554;2023-03-01T02:15:31;191.0;;;92.0;;
23360;SDS011;11852;50.082;18.554;2023-03-01T02:16:35;201.0;;;98.0;;
23360;SDS011;11852;50.082;18.554;2023-03-01T02:17:42;193.0;;;93.0;;
23360;SDS011;11852;50.082;18.554;2023-03-01T02:18:49;205.0;;;99.0;;
23360;SDS011;11852;50.082;18.554;2023-03-01T02:21:26;199.0;;;95.0;;
23360;SDS011;11852;50.082;18.554;2023-03-01T02:22:33;195.0;;;97.0;;
23360;SDS011;11852;50.082;18.554;2023-03-01T02:23:40;201.0;;;100.0;;
23360;SDS011;11852;50.082;18.554;2023-03-01T02:24:51;207.0;;;97.0;;
23360;SDS011;11852;50.082;18.554;2023-03-01T02:27:14;209.0;;;100.0;;
23360;SDS011;11852;50.082;18.554;2023-03-01T02:29:33;210.0;;;99.0;;
23360;SDS011;11852;50.082;18.554;2023-03-01T02:30:44;205.0;;;98.0;;
23360;SDS011;11852;50.082;18.554;2023-03-01T02:31:51;212.0;;;103.0;;
23360;SDS011;11852;50.082;18.554;2023-03-01T02:33:00;215.0;;;101.0;;
23360;SDS011;11852;50.082;18.554;2023-03-01T02:34:11;209.0;;;98.0;;
23360;SDS011;11852;50.082;18.554;2023-03-01T02:35:19;206.0;;;98.0;;
23360;SDS011;11852;50.082;18.554;2023-03-01T02:36:28;208.0;;;101.0;;
23360;SDS011;11852;50.082;18.554;2023-03-01T02:37:33;208.0;;;100.0;;
23360;SDS011;11852;50.082;18.554;2023-03-01T02:38:43;210.0;;;99.0;;
23360;SDS011;11852;50.082;18.554;2023-03-01T02:39:52;211.0;;;100.0;;
23360;SDS011;11852;50.082;18.554;2023-03-01T02:40:57;201.0;;;97.0;;
23360;SDS011;11852;50.082;18.554;2023-03-01T02:42:09;208.0;;;100.0;;
23360;SDS011;11852;50.082;18.554;2023-03-01T02:43:14;203.0;;;96.0;;
23360;SDS011;11852;50.082;18.554;2023-03-01T02:44:21;205.0;;;103.0;;
23360;SDS011;11852;50.082;18.554;2023-03-01T02:45:28;207.0;;;101.0;;
23360;SDS011;11852;50.082;18.554;2023-03-01T02:46:41;196.0;;;95.0;;
23360;SDS011;11852;50.082;18.554;2023-03-01T02:47:42;205.0;;;98.0;;
23360;SDS011;11852;50.082;18.554;2023-03-01T02:48:50;210.0;;;100.0;;
23360;SDS011;11852;50.082;18.554;2023-03-01T02:49:56;212.0;;;100.0;;
23360;SDS011;11852;50.082;18.554;2023-03-01T02:55:57;197.0;;;97.0;;
23360;SDS011;11852;50.082;18.554;2023-03-01T02:57:04;195.0;;;94.0;;
23360;SDS011;11852;50.082;18.554;2023-03-01T02:58:11;201.0;;;97.0;;
23360;SDS011;11852;50.082;18.554;2023-03-01T02:59:19;201.0;;;97.0;;
23360;SDS011;11852;50.082;18.554;2023-03-01T03:01:39;189.0;;;93.0;;
23360;SDS011;11852;50.082;18.554;2023-03-01T03:02:47;189.0;;;94.0;;
23360;SDS011;11852;50.082;18.554;2023-03-01T03:03:54;186.0;;;93.0;;
23360;SDS011;11852;50.082;18.554;2023-03-01T03:06:16;185.0;;;90.0;;
23360;SDS011;11852;50.082;18.554;2023-03-01T03:07:25;202.0;;;96.0;;
23360;SDS011;11852;50.082;18.554;2023-03-01T03:08:33;209.0;;;95.0;;
23360;SDS011;11852;50.082;18.554;2023-03-01T03:09:40;199.0;;;94.0;;
23360;SDS011;11852;50.082;18.554;2023-03-01T03:10:47;197.0;;;95.0;;
23360;SDS011;11852;50.082;18.554;2023-03-01T03:11:54;189.0;;;92.0;;
23360;SDS011;11852;50.082;18.554;2023-03-01T03:13:05;197.0;;;94.0;;
23360;SDS011;11852;50.082;18.554;2023-03-01T03:14:11;200.0;;;97.0;;
23360;SDS011;11852;50.082;18.554;2023-03-01T03:15:18;208.0;;;97.0;;
23360;SDS011;11852;50.082;18.554;2023-03-01T03:16:25;196.0;;;92.0;;
23360;SDS011;11852;50.082;18.554;2023-03-01T03:17:32;205.0;;;97.0;;
23360;SDS011;11852;50.082;18.554;2023-03-01T03:18:39;203.0;;;94.0;;
23360;SDS011;11852;50.082;18.554;2023-03-01T03:19:46;195.0;;;92.0;;
23360;SDS011;11852;50.082;18.554;2023-03-01T03:20:53;199.0;;;96.0;;
23360;SDS011;11852;50.082;18.554;2023-03-01T03:22:00;197.0;;;94.0;;
23360;SDS011;11852;50.082;18.554;2023-03-01T03:23:07;202.0;;;97.0;;
23360;SDS011;11852;50.082;18.554;2023-03-01T03:24:14;205.0;;;98.0;;
23360;SDS011;11852;50.082;18.554;2023-03-01T03:25:21;195.0;;;91.0;;
23360;SDS011;11852;50.082;18.554;2023-03-01T03:26:28;196.0;;;94.0;;
23360;SDS011;11852;50.082;18.554;2023-03-01T03:27:35;198.0;;;95.0;;
23360;SDS011;11852;50.082;18.554;2023-03-01T03:28:42;203.0;;;95.0;;
23360;SDS011;11852;50.082;18.554;2023-03-01T03:29:49;196.0;;;89.0;;
23360;SDS011;11852;50.082;18.554;2023-03-01T03:30:56;208.0;;;99.0;;
23360;SDS011;11852;50.082;18.554;2023-03-01T03:32:05;209.0;;;100.0;;
23360;SDS011;11852;50.082;18.554;2023-03-01T03:33:12;210.0;;;98.0;;
23360;SDS011;11852;50.082;18.554;2023-03-01T03:34:19;195.0;;;91.0;;
23360;SDS011;11852;50.082;18.554;2023-03-01T03:35:27;205.0;;;96.0;;
23360;SDS011;11852;50.082;18.554;2023-03-01T03:36:36;194.0;;;91.0;;
23360;SDS011;11852;50.082;18.554;2023-03-01T03:37:48;199.0;;;93.0;;
23360;SDS011;11852;50.082;18.554;2023-03-01T03:38:55;193.0;;;92.0;;
23360;SDS011;11852;50.082;18.554;2023-03-01T03:40:02;199.0;;;96.0;;
23360;SDS011;11852;50.082;18.554;2023-03-01T03:41:09;196.0;;;92.0;;
23360;SDS011;11852;50.082;18.554;2023-03-01T03:42:21;193.0;;;92.0;;
23360;SDS011;11852;50.082;18.554;2023-03-01T03:43:27;209.0;;;97.0;;
23360;SDS011;11852;50.082;18.554;2023-03-01T03:44:36;197.0;;;93.0;;
23360;SDS011;11852;50.082;18.554;2023-03-01T03:45:44;198.0;;;94.0;;
23360;SDS011;11852;50.082;18.554;2023-03-01T03:46:50;204.0;;;95.0;;
23360;SDS011;11852;50.082;18.554;2023-03-01T03:47:57;214.0;;;102.0;;
23360;SDS011;11852;50.082;18.554;2023-03-01T03:49:04;214.0;;;102.0;;
23360;SDS011;11852;50.082;18.554;2023-03-01T03:50:12;207.0;;;97.0;;
23360;SDS011;11852;50.082;18.554;2023-03-01T03:51:22;212.0;;;99.0;;
23360;SDS011;11852;50.082;18.554;2023-03-01T03:52:29;211.0;;;102.0;;
23360;SDS011;11852;50.082;18.554;2023-03-01T03:53:36;225.0;;;106.0;;
23360;SDS011;11852;50.082;18.554;2023-03-01T03:54:42;220.0;;;103.0;;
23360;SDS011;11852;50.082;18.554;2023-03-01T03:55:50;219.0;;;102.0;;
23360;SDS011;11852;50.082;18.554;2023-03-01T03:56:56;218.0;;;101.0;;
23360;SDS011;11852;50.082;18.554;2023-03-01T03:58:03;220.0;;;102.0;;
23360;SDS011;11852;50.082;18.554;2023-03-01T03:59:10;217.0;;;102.0;;
23360;SDS011;11852;50.082;18.554;2023-03-01T04:00:19;214.0;;;101.0;;
23360;SDS011;11852;50.082;18.554;2023-03-01T04:01:29;212.0;;;99.0;;
23360;SDS011;11852;50.082;18.554;2023-03-01T04:02:35;212.0;;;97.0;;
23360;SDS011;11852;50.082;18.554;2023-03-01T04:03:42;212.0;;;97.0;;
23360;SDS011;11852;50.082;18.554;2023-03-01T04:05:08;208.0;;;99.0;;
23360;SDS011;11852;50.082;18.554;2023-03-01T04:06:15;223.0;;;102.0;;
23360;SDS011;11852;50.082;18.554;2023-03-01T04:07:22;209.0;;;97.0;;
23360;SDS011;11852;50.082;18.554;2023-03-01T04:08:29;218.0;;;101.0;;
23360;SDS011;11852;50.082;18.554;2023-03-01T04:09:36;217.0;;;99.0;;
23360;SDS011;11852;50.082;18.554;2023-03-01T04:10:47;213.0;;;100.0;;
23360;SDS011;11852;50.082;18.554;2023-03-01T04:11:53;212.0;;;97.0;;
23360;SDS011;11852;50.082;18.554;2023-03-01T04:13:00;219.0;;;103.0;;
23360;SDS011;11852;50.082;18.554;2023-03-01T04:14:11;205.0;;;95.0;;
23360;SDS011;11852;50.082;18.554;2023-03-01T04:15:18;207.0;;;100.0;;
23360;SDS011;11852;50.082;18.554;2023-03-01T04:16:25;217.0;;;101.0;;
23360;SDS011;11852;50.082;18.554;2023-03-01T04:17:33;212.0;;;102.0;;
23360;SDS011;11852;50.082;18.554;2023-03-01T04:18:40;216.0;;;100.0;;
23360;SDS011;11852;50.082;18.554;2023-03-01T04:19:47;213.0;;;96.0;;
23360;SDS011;11852;50.082;18.554;2023-03-01T04:20:57;210.0;;;101.0;;
23360;SDS011;11852;50.082;18.554;2023-03-01T04:22:04;220.0;;;100.0;;
23360;SDS011;11852;50.082;18.554;2023-03-01T04:23:15;197.0;;;94.0;;
23360;SDS011;11852;50.082;18.554;2023-03-01T04:24:21;195.0;;;93.0;;
23360;SDS011;11852;50.082;18.554;2023-03-01T04:25:28;198.0;;;97.0;;
23360;SDS011;11852;50.082;18.554;2023-03-01T04:26:35;188.0;;;91.0;;
23360;SDS011;11852;50.082;18.554;2023-03-01T04:27:42;185.0;;;90.0;;
23360;SDS011;11852;50.082;18.554;2023-03-01T04:28:49;200.0;;;95.0;;
23360;SDS011;11852;50.082;18.554;2023-03-01T04:29:56;189.0;;;90.0;;
23360;SDS011;11852;50.082;18.554;2023-03-01T04:31:04;183.0;;;88.0;;
23360;SDS011;11852;50.082;18.554;2023-03-01T04:32:10;187.0;;;89.0;;
23360;SDS011;11852;50.082;18.554;2023-03-01T04:33:17;191.0;;;90.0;;
23360;SDS011;11852;50.082;18.554;2023-03-01T04:34:24;184.0;;;89.0;;
23360;SDS011;11852;50.082;18.554;2023-03-01T04:35:32;179.0;;;87.0;;
23360;SDS011;11852;50.082;18.554;2023-03-01T04:36:38;182.0;;;89.0;;
23360;SDS011;11852;50.082;18.554;2023-03-01T04:37:49;176.0;;;87.0;;
23360;SDS011;11852;50.082;18.554;2023-03-01T04:38:56;177.0;;;87.0;;
23360;SDS011;11852;50.082;18.554;2023-03-01T04:40:03;177.0;;;84.0;;
23360;SDS011;11852;50.082;18.554;2023-03-01T04:41:10;186.0;;;88.0;;
23360;SDS011;11852;50.082;18.554;2023-03-01T04:42:20;183.0;;;86.0;;
23360;SDS011;11852;50.082;18.554;2023-03-01T04:43:27;181.0;;;88.0;;
23360;SDS011;11852;50.082;18.554;2023-03-01T04:44:34;183.0;;;85.0;;
23360;SDS011;11852;50.082;18.554;2023-03-01T04:45:41;178.0;;;87.0;;
23360;SDS011;11852;50.082;18.554;2023-03-01T04:46:48;182.0;;;86.0;;
23360;SDS011;11852;50.082;18.554;2023-03-01T04:47:55;186.0;;;89.0;;
23360;SDS011;11852;50.082;18.554;2023-03-01T04:49:02;181.0;;;86.0;;
23360;SDS011;11852;50.082;18.554;2023-03-01T04:50:10;188.0;;;90.0;;
23360;SDS011;11852;50.082;18.554;2023-03-01T04:51:19;181.0;;;90.0;;
23360;SDS011;11852;50.082;18.554;2023-03-01T04:52:26;192.0;;;89.0;;
23360;SDS011;11852;50.082;18.554;2023-03-01T04:53:33;189.0;;;91.0;;
23360;SDS011;11852;50.082;18.554;2023-03-01T04:54:40;182.0;;;87.0;;
23360;SDS011;11852;50.082;18.554;2023-03-01T04:55:47;177.0;;;89.0;;
23360;SDS011;11852;50.082;18.554;2023-03-01T04:56:54;173.0;;;85.0;;
23360;SDS011;11852;50.082;18.554;2023-03-01T04:58:05;172.0;;;86.0;;
23360;SDS011;11852;50.082;18.554;2023-03-01T04:59:12;180.0;;;86.0;;
23360;SDS011;11852;50.082;18.554;2023-03-01T05:00:22;182.0;;;83.0;;
23360;SDS011;11852;50.082;18.554;2023-03-01T05:01:29;184.0;;;91.0;;
23360;SDS011;11852;50.082;18.554;2023-03-01T05:02:36;182.0;;;87.0;;
23360;SDS011;11852;50.082;18.554;2023-03-01T05:03:44;184.0;;;90.0;;
23360;SDS011;11852;50.082;18.554;2023-03-01T05:04:50;174.0;;;85.0;;
23360;SDS011;11852;50.082;18.554;2023-03-01T05:05:58;176.0;;;86.0;;
23360;SDS011;11852;50.082;18.554;2023-03-01T05:07:04;180.0;;;88.0;;
23360;SDS011;11852;50.082;18.554;2023-03-01T05:08:11;188.0;;;90.0;;
23360;SDS011;11852;50.082;18.554;2023-03-01T05:09:18;191.0;;;90.0;;
23360;SDS011;11852;50.082;18.554;2023-03-01T05:10:25;175.0;;;82.0;;
23360;SDS011;11852;50.082;18.554;2023-03-01T05:11:34;185.0;;;89.0;;
23360;SDS011;11852;50.082;18.554;2023-03-01T05:12:41;189.0;;;90.0;;
23360;SDS011;11852;50.082;18.554;2023-03-01T05:13:48;186.0;;;89.0;;
23360;SDS011;11852;50.082;18.554;2023-03-01T05:14:55;188.0;;;91.0;;
23360;SDS011;11852;50.082;18.554;2023-03-01T05:16:02;176.0;;;87.0;;
23360;SDS011;11852;50.082;18.554;2023-03-01T05:17:10;189.0;;;87.0;;
23360;SDS011;11852;50.082;18.554;2023-03-01T05:18:17;194.0;;;89.0;;
23360;SDS011;11852;50.082;18.554;2023-03-01T05:19:23;187.0;;;89.0;;
23360;SDS011;11852;50.082;18.554;2023-03-01T05:20:30;184.0;;;89.0;;
23360;SDS011;11852;50.082;18.554;2023-03-01T05:21:38;186.0;;;90.0;;
23360;SDS011;11852;50.082;18.554;2023-03-01T05:22:45;187.0;;;88.0;;
23360;SDS011;11852;50.082;18.554;2023-03-01T05:23:52;189.0;;;91.0;;
23360;SDS011;11852;50.082;18.554;2023-03-01T05:24:59;187.0;;;88.0;;
23360;SDS011;11852;50.082;18.554;2023-03-01T05:26:06;185.0;;;87.0;;
23360;SDS011;11852;50.082;18.554;2023-03-01T05:27:13;187.0;;;89.0;;
23360;SDS011;11852;50.082;18.554;2023-03-01T05:28:20;184.0;;;89.0;;
23360;SDS011;11852;50.082;18.554;2023-03-01T05:29:27;189.0;;;89.0;;
23360;SDS011;11852;50.082;18.554;2023-03-01T05:30:33;189.0;;;89.0;;
23360;SDS011;11852;50.082;18.554;2023-03-01T05:31:40;192.0;;;90.0;;
23360;SDS011;11852;50.082;18.554;2023-03-01T05:32:49;190.0;;;90.0;;
23360;SDS011;11852;50.082;18.554;2023-03-01T05:33:59;190.0;;;89.0;;
23360;SDS011;11852;50.082;18.554;2023-03-01T05:35:08;180.0;;;85.0;;
23360;SDS011;11852;50.082;18.554;2023-03-01T05:36:15;189.0;;;91.0;;
23360;SDS011;11852;50.082;18.554;2023-03-01T05:37:22;195.0;;;92.0;;
23360;SDS011;11852;50.082;18.554;2023-03-01T05:38:29;197.0;;;95.0;;
23360;SDS011;11852;50.082;18.554;2023-03-01T05:39:35;189.0;;;88.0;;
23360;SDS011;11852;50.082;18.554;2023-03-01T05:40:43;186.0;;;89.0;;
23360;SDS011;11852;50.082;18.554;2023-03-01T05:43:00;190.0;;;89.0;;
23360;SDS011;11852;50.082;18.554;2023-03-01T05:44:07;195.0;;;91.0;;
23360;SDS011;11852;50.082;18.554;2023-03-01T05:45:14;188.0;;;89.0;;
23360;SDS011;11852;50.082;18.554;2023-03-01T05:46:21;193.0;;;91.0;;
23360;SDS011;11852;50.082;18.554;2023-03-01T05:47:28;186.0;;;89.0;;
23360;SDS011;11852;50.082;18.554;2023-03-01T05:48:35;184.0;;;88.0;;
23360;SDS011;11852;50.082;18.554;2023-03-01T05:49:42;184.0;;;88.0;;
23360;SDS011;11852;50.082;18.554;2023-03-01T05:50:49;188.0;;;89.0;;
23360;SDS011;11852;50.082;18.554;2023-03-01T05:51:56;190.0;;;90.0;;
23360;SDS011;11852;50.082;18.554;2023-03-01T05:53:07;189.0;;;88.0;;
23360;SDS011;11852;50.082;18.554;2023-03-01T05:54:19;197.0;;;93.0;;
23360;SDS011;11852;50.082;18.554;2023-03-01T05:55:25;183.0;;;88.0;;
23360;SDS011;11852;50.082;18.554;2023-03-01T05:56:35;190.0;;;91.0;;
23360;SDS011;11852;50.082;18.554;2023-03-01T05:57:42;188.0;;;90.0;;
23360;SDS011;11852;50.082;18.554;2023-03-01T05:58:50;182.0;;;88.0;;
23360;SDS011;11852;50.082;18.554;2023-03-01T05:59:57;189.0;;;90.0;;
23360;SDS011;11852;50.082;18.554;2023-03-01T06:01:04;187.0;;;88.0;;
23360;SDS011;11852;50.082;18.554;2023-03-01T06:02:10;191.0;;;93.0;;
23360;SDS011;11852;50.082;18.554;2023-03-01T06:03:17;191.0;;;90.0;;
23360;SDS011;11852;50.082;18.554;2023-03-01T06:04:24;190.0;;;93.0;;
23360;SDS011;11852;50.082;18.554;2023-03-01T06:05:31;196.0;;;96.0;;
23360;SDS011;11852;50.082;18.554;2023-03-01T06:06:38;202.0;;;99.0;;
23360;SDS011;11852;50.082;18.554;2023-03-01T06:07:45;203.0;;;98.0;;
23360;SDS011;11852;50.082;18.554;2023-03-01T06:08:52;215.0;;;104.0;;
23360;SDS011;11852;50.082;18.554;2023-03-01T06:09:59;214.0;;;103.0;;
23360;SDS011;11852;50.082;18.554;2023-03-01T06:11:06;214.0;;;104.0;;
23360;SDS011;11852;50.082;18.554;2023-03-01T06:12:13;213.0;;;105.0;;
23360;SDS011;11852;50.082;18.554;2023-03-01T06:13:20;219.0;;;105.0;;
23360;SDS011;11852;50.082;18.554;2023-03-01T06:14:27;211.0;;;103.0;;
23360;SDS011;11852;50.082;18.554;2023-03-01T06:15:35;216.0;;;103.0;;
23360;SDS011;11852;50.082;18.554;2023-03-01T06:16:42;210.0;;;102.0;;
23360;SDS011;11852;50.082;18.554;2023-03-01T06:17:49;270.0;;;121.0;;
23360;SDS011;11852;50.082;18.554;2023-03-01T06:18:56;279.0;;;128.0;;
23360;SDS011;11852;50.082;18.554;2023-03-01T06:20:08;272.0;;;120.0;;
23360;SDS011;11852;50.082;18.554;2023-03-01T06:21:17;270.0;;;121.0;;
23360;SDS011;11852;50.082;18.554;2023-03-01T06:22:26;277.0;;;127.0;;
23360;SDS011;11852;50.082;18.554;2023-03-01T06:23:34;272.0;;;123.0;;
23360;SDS011;11852;50.082;18.554;2023-03-01T06:24:41;273.0;;;128.0;;
23360;SDS011;11852;50.082;18.554;2023-03-01T06:25:51;272.0;;;125.0;;
23360;SDS011;11852;50.082;18.554;2023-03-01T06:26:59;270.0;;;122.0;;
23360;SDS011;11852;50.082;18.554;2023-03-01T06:28:06;264.0;;;123.0;;
23360;SDS011;11852;50.082;18.554;2023-03-01T06:29:16;260.0;;;120.0;;
23360;SDS011;11852;50.082;18.554;2023-03-01T06:30:25;254.0;;;120.0;;
23360;SDS011;11852;50.082;18.554;2023-03-01T06:31:31;256.0;;;116.0;;
23360;SDS011;11852;50.082;18.554;2023-03-01T06:32:39;247.0;;;116.0;;
23360;SDS011;11852;50.082;18.554;2023-03-01T06:33:49;231.0;;;110.0;;
23360;SDS011;11852;50.082;18.554;2023-03-01T06:34:58;249.0;;;115.0;;
23360;SDS011;11852;50.082;18.554;2023-03-01T06:36:06;239.0;;;112.0;;
23360;SDS011;11852;50.082;18.554;2023-03-01T06:37:13;239.0;;;112.0;;
23360;SDS011;11852;50.082;18.554;2023-03-01T06:38:30;239.0;;;112.0;;
23360;SDS011;11852;50.082;18.554;2023-03-01T06:39:41;235.0;;;112.0;;
23360;SDS011;11852;50.082;18.554;2023-03-01T06:40:52;232.0;;;111.0;;
23360;SDS011;11852;50.082;18.554;2023-03-01T06:42:02;234.0;;;108.0;;
23360;SDS011;11852;50.082;18.554;2023-03-01T06:43:12;238.0;;;114.0;;
23360;SDS011;11852;50.082;18.554;2023-03-01T06:44:22;233.0;;;112.0;;
23360;SDS011;11852;50.082;18.554;2023-03-01T06:45:32;225.0;;;107.0;;
23360;SDS011;11852;50.082;18.554;2023-03-01T06:46:49;244.0;;;114.0;;
23360;SDS011;11852;50.082;18.554;2023-03-01T06:49:10;251.0;;;119.0;;
23360;SDS011;11852;50.082;18.554;2023-03-01T06:50:21;251.0;;;118.0;;
23360;SDS011;11852;50.082;18.554;2023-03-01T06:51:29;272.0;;;132.0;;
23360;SDS011;11852;50.082;18.554;2023-03-01T06:52:40;273.0;;;129.0;;